createdAt,value
2023-05-20T00:02:10.850Z,93811.31
2023-05-20T00:04:37.269Z,93808.13
2023-05-20T00:07:04.238Z,93813.34
2023-05-20T00:09:30.582Z,93817.00
2023-05-20T00:11:56.911Z,93806.94
2023-05-20T00:14:23.247Z,93803.72
2023-05-20T00:16:50.704Z,93801.28
2023-05-20T00:19:17.205Z,93800.88
2023-05-20T00:21:43.774Z,93797.66
2023-05-20T00:24:10.122Z,93799.09
2023-05-20T00:26:39.606Z,93795.66
2023-05-20T00:29:05.948Z,93795.22
2023-05-20T00:31:32.309Z,93759.47
2023-05-20T00:33:58.672Z,93792.38
2023-05-20T00:36:24.987Z,93797.66
2023-05-20T00:38:53.340Z,93796.06
2023-05-20T00:41:19.747Z,93803.31
2023-05-20T00:43:46.073Z,93806.88
2023-05-20T00:46:12.780Z,93801.66
2023-05-20T00:48:43.287Z,93802.28
2023-05-20T00:51:10.770Z,93800.09
2023-05-20T00:56:18.645Z,93804.53
2023-05-20T00:58:47.165Z,93805.13
2023-05-20T01:01:13.651Z,93804.53
2023-05-20T01:03:40.202Z,93792.81
2023-05-20T01:06:06.635Z,93787.16
2023-05-20T01:08:34.177Z,93792.81
2023-05-20T01:11:04.734Z,93798.50
2023-05-20T01:13:35.022Z,93790.81
2023-05-20T01:16:03.539Z,93787.97
2023-05-20T01:18:32.385Z,93777.50
2023-05-20T01:21:01.581Z,93789.28
2023-05-20T01:23:32.572Z,93790.06
2023-05-20T01:25:58.944Z,93784.81
2023-05-20T01:28:27.066Z,93788.03
2023-05-20T01:30:56.273Z,93792.28
2023-05-20T01:33:24.421Z,93794.91
2023-05-20T01:35:52.071Z,93785.19
2023-05-20T01:38:19.283Z,93791.47
2023-05-20T01:40:53.788Z,93785.66
2023-05-20T01:43:21.040Z,93776.34
2023-05-20T01:45:48.533Z,93783.03
2023-05-20T01:48:14.914Z,93784.81
2023-05-20T01:50:41.268Z,93783.22
2023-05-20T01:53:10.708Z,93781.13
2023-05-20T01:55:42.179Z,93779.16
2023-05-20T01:58:08.536Z,93784.78
2023-05-20T02:00:35.015Z,93783.78
2023-05-20T02:03:03.494Z,93778.75
2023-05-20T02:05:41.839Z,93772.50
2023-05-20T02:08:08.357Z,93773.13
2023-05-20T02:10:34.738Z,93772.50
2023-05-20T02:13:01.112Z,93773.97
2023-05-20T02:15:27.521Z,93770.13
2023-05-20T02:17:53.946Z,93766.72
2023-05-20T02:20:20.326Z,93773.97
2023-05-20T02:22:46.782Z,93780.81
2023-05-20T02:25:13.261Z,93779.16
2023-05-20T02:27:40.695Z,93775.19
2023-05-20T02:30:07.410Z,93769.31
2023-05-20T02:32:40.046Z,93773.75
2023-05-20T02:35:06.717Z,93759.84
2023-05-20T02:37:34.503Z,93741.75
2023-05-20T02:40:01.221Z,93771.88
2023-05-20T02:42:27.577Z,93772.31
2023-05-20T02:44:56.557Z,93774.75
2023-05-20T02:47:23.033Z,93768.31
2023-05-20T02:49:49.395Z,93766.13
2023-05-20T02:52:16.541Z,93769.53
2023-05-20T02:54:42.927Z,93761.88
2023-05-20T02:57:09.291Z,93763.50
2023-05-20T02:59:35.624Z,93767.13
2023-05-20T03:02:02.063Z,93763.50
2023-05-20T03:04:31.617Z,93759.47
2023-05-20T03:06:58.195Z,93764.72
2023-05-20T03:09:25.155Z,93771.53
2023-05-20T03:11:51.546Z,93755.25
2023-05-20T03:14:17.919Z,93760.84
2023-05-20T03:16:44.279Z,93763.38
2023-05-20T03:19:10.653Z,93765.47
2023-05-20T03:21:39.079Z,93767.31
2023-05-20T03:24:05.606Z,93760.28
2023-05-20T03:26:33.907Z,93752.25
2023-05-20T03:29:00.253Z,93754.03
2023-05-20T03:31:27.374Z,93754.25
2023-05-20T03:33:53.729Z,93754.84
2023-05-20T03:36:20.077Z,93758.25
2023-05-20T03:38:46.433Z,93757.69
2023-05-20T03:41:16.822Z,93739.38
2023-05-20T03:43:43.197Z,93747.81
2023-05-20T03:46:18.691Z,93747.00
2023-05-20T03:48:48.119Z,93744.59
2023-05-20T03:51:14.472Z,93749.81
2023-05-20T03:53:40.916Z,93747.22
2023-05-20T03:56:12.288Z,93740.94
2023-05-20T03:58:38.807Z,93740.13
2023-05-20T04:01:05.445Z,93746.75
2023-05-20T04:03:31.952Z,93746.34
2023-05-20T04:05:59.443Z,93745.94
2023-05-20T04:08:28.923Z,93750.59
2023-05-20T04:10:55.796Z,93748.16
2023-05-20T04:13:22.290Z,93740.94
2023-05-20T04:15:53.172Z,93738.88
2023-05-20T04:18:19.620Z,93742.91
2023-05-20T04:20:46.486Z,93745.69
2023-05-20T04:23:12.869Z,93738.00
2023-05-20T04:25:41.208Z,93741.28
2023-05-20T04:28:16.835Z,93741.69
2023-05-20T04:30:45.091Z,93736.81
2023-05-20T04:33:11.880Z,93741.38
2023-05-20T04:35:41.512Z,93736.31
2023-05-20T04:38:08.598Z,93741.13
2023-05-20T04:40:34.952Z,93737.88
2023-05-20T04:43:04.047Z,93733.69
2023-05-20T04:45:30.471Z,93734.81
2023-05-20T04:47:56.966Z,93734.97
2023-05-20T04:50:25.372Z,93742.25
2023-05-20T04:53:03.054Z,93742.59
2023-05-20T04:55:30.789Z,93738.78
2023-05-20T04:57:59.224Z,93739.38
2023-05-20T05:00:35.662Z,93736.41
2023-05-20T05:03:02.510Z,93739.38
2023-05-20T05:05:28.901Z,93732.72
2023-05-20T05:07:55.316Z,93732.34
2023-05-20T05:10:23.353Z,93727.53
2023-05-20T05:12:49.723Z,93716.22
2023-05-20T05:15:16.167Z,93725.06
2023-05-20T05:18:11.520Z,93732.34
2023-05-20T05:20:37.939Z,93734.50
2023-05-20T05:23:04.316Z,93724.06
2023-05-20T05:25:30.855Z,93724.06
2023-05-20T05:27:57.251Z,93727.13
2023-05-20T05:30:23.661Z,93723.16
2023-05-20T05:32:50.253Z,93731.03
2023-05-20T05:35:17.725Z,93730.31
2023-05-20T05:37:48.293Z,93738.25
2023-05-20T05:40:15.733Z,93735.28
2023-05-20T05:42:42.057Z,93739.22
2023-05-20T05:45:08.841Z,93736.75
2023-05-20T05:47:36.462Z,93729.47
2023-05-20T05:50:03.029Z,93739.16
2023-05-20T05:52:29.413Z,93746.31
2023-05-20T05:54:59.992Z,93744.19
2023-05-20T05:57:31.357Z,93745.50
2023-05-20T06:00:01.912Z,93741.44
2023-05-20T06:02:28.399Z,93734.97
2023-05-20T06:04:54.831Z,93736.19
2023-05-20T06:07:25.221Z,93727.72
2023-05-20T06:09:51.590Z,93728.59
2023-05-20T06:12:21.905Z,93733.78
2023-05-20T06:14:48.813Z,93735.75
2023-05-20T06:17:15.171Z,93737.66
2023-05-20T06:19:41.567Z,93738.22
2023-05-20T06:22:07.942Z,93736.47
2023-05-20T06:24:34.510Z,93732.06
2023-05-20T06:27:00.940Z,93731.38
2023-05-20T06:29:29.080Z,93722.19
2023-05-20T06:31:55.394Z,93717.94
2023-05-20T06:34:21.750Z,93714.09
2023-05-20T06:36:48.115Z,93715.72
2023-05-20T06:39:14.449Z,93709.19
2023-05-20T06:41:41.884Z,93720.09
2023-05-20T06:44:08.283Z,93709.16
2023-05-20T06:46:34.881Z,93713.53
2023-05-20T06:49:01.280Z,93704.44
2023-05-20T06:51:28.295Z,93705.47
2023-05-20T06:53:54.694Z,93708.44
2023-05-20T06:56:21.548Z,93707.47
2023-05-20T06:58:47.910Z,93708.19
2023-05-20T07:01:15.955Z,93715.03
2023-05-20T07:03:51.880Z,93715.63
2023-05-20T07:06:18.301Z,93709.94
2023-05-20T07:08:44.801Z,93714.06
2023-05-20T07:11:13.141Z,93700.94
2023-05-20T07:13:39.544Z,93710.41
2023-05-20T07:16:06.041Z,93700.69
2023-05-20T07:18:32.440Z,93706.91
2023-05-20T07:20:58.840Z,93706.88
2023-05-20T07:23:25.209Z,93701.38
2023-05-20T07:25:52.860Z,93707.53
2023-05-20T07:28:20.481Z,93703.41
2023-05-20T07:30:50.089Z,93699.56
2023-05-20T07:33:17.577Z,93695.41
2023-05-20T07:35:50.340Z,93692.00
2023-05-20T07:38:16.753Z,93692.78
2023-05-20T07:40:43.131Z,93687.00
2023-05-20T07:43:09.492Z,93688.56
2023-05-20T07:45:37.218Z,93682.28
2023-05-20T07:48:04.415Z,93681.19
2023-05-20T07:50:31.041Z,93673.88
2023-05-20T07:52:57.395Z,93672.75
2023-05-20T07:55:24.021Z,93676.28
2023-05-20T07:57:50.626Z,93681.03
2023-05-20T08:00:17.036Z,93674.78
2023-05-20T08:02:43.496Z,93673.03
2023-05-20T08:05:09.996Z,93665.03
2023-05-20T08:07:36.403Z,93663.19
2023-05-20T08:10:04.911Z,93659.63
2023-05-20T08:12:31.301Z,93664.69
2023-05-20T08:14:57.650Z,93664.78
2023-05-20T08:17:26.141Z,93662.56
2023-05-20T08:19:52.542Z,93668.00
2023-05-20T08:22:18.895Z,93668.00
2023-05-20T08:24:45.456Z,93658.22
2023-05-20T08:27:11.811Z,93655.81
2023-05-20T08:29:38.272Z,93656.25
2023-05-20T08:32:04.864Z,93654.94
2023-05-20T08:34:31.217Z,93649.13
2023-05-20T08:36:57.826Z,93653.25
2023-05-20T08:39:24.919Z,93645.66
2023-05-20T08:41:51.323Z,93656.03
2023-05-20T08:44:19.125Z,93648.53
2023-05-20T08:46:46.008Z,93650.88
2023-05-20T08:49:12.456Z,93645.13
2023-05-20T08:51:39.529Z,93654.72
2023-05-20T08:54:07.033Z,93655.19
2023-05-20T08:56:33.894Z,93657.34
2023-05-20T08:59:04.318Z,93655.53
2023-05-20T09:01:30.842Z,93653.19
2023-05-20T09:03:57.189Z,93651.44
2023-05-20T09:06:24.158Z,93654.03
2023-05-20T09:08:53.535Z,93650.34
2023-05-20T09:11:21.761Z,93660.09
2023-05-20T09:13:48.159Z,93655.75
2023-05-20T09:16:14.704Z,93653.84
2023-05-20T09:18:41.622Z,93652.22
2023-05-20T09:21:10.120Z,93649.44
2023-05-20T09:23:37.687Z,93649.78
2023-05-20T09:26:04.258Z,93653.00
2023-05-20T09:28:30.858Z,93655.81
2023-05-20T09:31:01.486Z,93653.50
2023-05-20T09:33:29.901Z,93648.34
2023-05-20T09:36:03.491Z,93654.06
2023-05-20T09:38:35.440Z,93655.78
2023-05-20T09:41:09.596Z,93649.38
2023-05-20T09:43:37.293Z,93645.88
2023-05-20T09:46:04.462Z,93647.06
2023-05-20T09:48:34.155Z,93641.63
2023-05-20T09:51:01.779Z,93644.78
2023-05-20T09:53:28.418Z,93644.16
2023-05-20T09:55:55.268Z,93640.06
2023-05-20T09:58:22.808Z,93640.47
2023-05-20T10:00:49.369Z,93646.47
2023-05-20T10:03:15.892Z,93641.66
2023-05-20T10:05:45.387Z,93641.41
2023-05-20T10:08:16.077Z,93636.56
2023-05-20T10:10:44.891Z,93637.69
2023-05-20T10:13:28.730Z,93621.97
2023-05-20T10:16:13.299Z,93625.38
2023-05-20T10:18:45.683Z,93624.09
2023-05-20T10:21:16.044Z,93624.09
2023-05-20T10:23:42.492Z,93625.31
2023-05-20T10:26:08.926Z,93622.69
2023-05-20T10:28:38.861Z,93626.88
2023-05-20T10:31:19.098Z,93625.44
2023-05-20T10:33:46.071Z,93630.72
2023-05-20T10:36:30.620Z,93625.53
2023-05-20T10:38:58.220Z,93629.50
2023-05-20T10:41:26.693Z,93632.34
2023-05-20T10:44:03.470Z,93619.13
2023-05-20T10:46:41.863Z,93616.63
2023-05-20T10:49:22.468Z,93616.50
2023-05-20T10:51:51.532Z,93619.34
2023-05-20T10:54:18.010Z,93616.16
2023-05-20T10:56:55.657Z,93629.28
2023-05-20T10:59:22.313Z,93620.59
2023-05-20T11:01:49.030Z,93620.13
2023-05-20T11:04:16.626Z,93625.38
2023-05-20T11:06:50.582Z,93621.50
2023-05-20T11:09:17.134Z,93612.03
2023-05-20T11:11:43.587Z,93605.16
2023-05-20T11:14:13.618Z,93599.84
2023-05-20T11:16:42.421Z,93603.00
2023-05-20T11:19:09.495Z,93605.63
2023-05-20T11:21:42.554Z,93592.31
2023-05-20T11:24:08.887Z,93600.75
2023-05-20T11:26:35.939Z,93597.41
2023-05-20T11:29:02.450Z,93594.50
2023-05-20T11:31:28.941Z,93595.72
2023-05-20T11:33:55.318Z,93584.44
2023-05-20T11:36:27.937Z,93590.59
2023-05-20T11:38:55.404Z,93590.06
2023-05-20T11:41:28.924Z,93585.25
2023-05-20T11:43:59.202Z,93582.91
2023-05-20T11:46:26.144Z,93577.84
2023-05-20T11:48:56.404Z,93582.88
2023-05-20T11:51:24.890Z,93578.38
2023-05-20T11:53:51.281Z,93589.50
2023-05-20T11:56:21.517Z,93582.06
2023-05-20T11:58:48.026Z,93582.91
2023-05-20T12:03:47.457Z,93571.50
2023-05-20T12:06:14.986Z,93579.97
2023-05-20T12:08:41.321Z,93576.78
2023-05-20T12:11:07.724Z,93580.47
2023-05-20T12:13:35.402Z,93582.31
2023-05-20T12:16:02.349Z,93575.69
2023-05-20T12:18:28.841Z,93563.47
2023-05-20T12:20:56.263Z,93566.16
2023-05-20T12:23:22.692Z,93563.50
2023-05-20T12:25:50.031Z,93568.56
2023-05-20T12:28:17.666Z,93551.22
2023-05-20T12:30:44.164Z,93560.06
2023-05-20T12:33:10.532Z,93550.00
2023-05-20T12:35:38.010Z,93545.22
2023-05-20T12:38:05.035Z,93537.44
2023-05-20T12:40:31.422Z,93539.94
2023-05-20T12:42:59.026Z,93536.66
2023-05-20T12:45:25.534Z,93532.31
2023-05-20T12:47:51.907Z,93539.72
2023-05-20T12:50:18.386Z,93533.97
2023-05-20T12:52:44.790Z,93535.56
2023-05-20T12:55:13.832Z,93528.72
2023-05-20T12:57:40.859Z,93528.09
2023-05-20T13:00:08.336Z,93526.25
2023-05-20T13:02:34.825Z,93526.94
2023-05-20T13:05:01.340Z,93524.53
2023-05-20T13:07:34.214Z,93523.47
2023-05-20T13:10:00.594Z,93525.19
2023-05-20T13:12:26.964Z,93518.50
2023-05-20T13:14:53.491Z,93520.59
2023-05-20T13:17:19.967Z,93523.47
2023-05-20T13:19:46.390Z,93514.63
2023-05-20T13:22:12.748Z,93521.31
2023-05-20T13:24:39.123Z,93515.38
2023-05-20T13:27:05.654Z,93514.63
2023-05-20T13:29:31.993Z,93511.31
2023-05-20T13:32:00.313Z,93521.66
2023-05-20T13:34:28.412Z,93514.28
2023-05-20T13:36:54.889Z,93515.56
2023-05-20T13:39:28.472Z,93509.00
2023-05-20T13:41:55.295Z,93506.38
2023-05-20T13:44:21.834Z,93500.41
2023-05-20T13:46:48.256Z,93503.19
2023-05-20T13:49:14.636Z,93501.03
2023-05-20T13:51:42.150Z,93496.50
2023-05-20T13:54:08.505Z,93487.31
2023-05-20T13:56:35.040Z,93482.22
2023-05-20T13:59:01.385Z,93471.91
2023-05-20T14:01:28.399Z,93480.59
2023-05-20T14:03:55.984Z,93472.47
2023-05-20T14:06:22.794Z,93458.88
2023-05-20T14:08:56.624Z,93460.34
2023-05-20T14:11:25.022Z,93461.25
2023-05-20T14:13:52.435Z,93469.41
2023-05-20T14:16:20.856Z,93463.06
2023-05-20T14:18:47.234Z,93459.66
2023-05-20T14:21:13.648Z,93459.66
2023-05-20T14:23:44.319Z,93461.34
2023-05-20T14:26:11.246Z,93454.69
2023-05-20T14:28:37.793Z,93448.84
2023-05-20T14:31:11.332Z,93452.69
2023-05-20T14:33:37.719Z,93442.00
2023-05-20T14:36:04.246Z,93446.97
2023-05-20T14:38:30.958Z,93439.63
2023-05-20T14:40:58.493Z,93437.16
2023-05-20T14:43:24.885Z,93442.78
2023-05-20T14:45:52.154Z,93448.00
2023-05-20T14:48:25.598Z,93458.59
2023-05-20T14:50:51.946Z,93453.41
2023-05-20T14:53:19.395Z,93445.19
2023-05-20T14:55:49.856Z,93447.28
2023-05-20T14:58:17.291Z,93444.69
2023-05-20T15:00:43.675Z,93443.63
2023-05-20T15:03:10.236Z,93444.88
2023-05-20T15:05:36.731Z,93444.97
2023-05-20T15:08:03.779Z,93437.69
2023-05-20T15:10:32.118Z,93442.53
2023-05-20T15:12:58.636Z,93430.94
2023-05-20T15:15:25.261Z,93437.28
2023-05-20T15:17:51.802Z,93431.84
2023-05-20T15:20:18.420Z,93426.16
2023-05-20T15:22:47.825Z,93427.97
2023-05-20T15:25:14.405Z,93434.53
2023-05-20T15:27:50.924Z,93439.22
2023-05-20T15:30:17.326Z,93430.03
2023-05-20T15:32:43.847Z,93418.16
2023-05-20T15:35:12.370Z,93432.81
2023-05-20T15:37:38.796Z,93426.19
2023-05-20T15:40:05.450Z,93419.72
2023-05-20T15:42:37.837Z,93426.00
2023-05-20T15:45:04.351Z,93423.84
2023-05-20T15:47:31.809Z,93428.47
2023-05-20T15:49:58.178Z,93423.84
2023-05-20T15:52:24.628Z,93422.72
2023-05-20T15:54:52.074Z,93429.03
2023-05-20T15:57:18.569Z,93422.72
2023-05-20T15:59:46.999Z,93417.94
2023-05-20T16:02:14.503Z,93421.00
2023-05-20T16:04:41.276Z,93423.59
2023-05-20T16:07:09.788Z,93417.81
2023-05-20T16:09:37.167Z,93425.69
2023-05-20T16:12:06.082Z,93425.72
2023-05-20T16:14:32.444Z,93427.19
2023-05-20T16:16:58.849Z,93417.13
2023-05-20T16:19:25.220Z,93424.56
2023-05-20T16:21:51.606Z,93422.88
2023-05-20T16:24:18.007Z,93423.59
2023-05-20T16:26:45.595Z,93422.78
2023-05-20T16:29:13.378Z,93421.56
2023-05-20T16:31:41.473Z,93429.03
2023-05-20T16:34:09.583Z,93428.25
2023-05-20T16:36:39.344Z,93424.97
2023-05-20T16:39:06.461Z,93431.97
2023-05-20T16:46:54.170Z,93441.19
2023-05-20T16:51:56.954Z,93447.31
2023-05-20T16:54:23.475Z,93441.25
2023-05-20T16:56:54.900Z,93445.06
2023-05-20T16:59:21.353Z,93451.56
2023-05-20T17:01:48.772Z,93455.75
2023-05-20T17:04:15.150Z,93442.44
2023-05-20T17:06:44.587Z,93442.84
2023-05-20T17:09:29.522Z,93443.72
2023-05-20T17:11:55.963Z,93444.94
2023-05-20T17:14:22.356Z,93450.81
2023-05-20T17:16:48.756Z,93453.50
2023-05-20T17:19:17.237Z,93447.50
2023-05-20T17:21:52.816Z,93448.28
2023-05-20T17:24:20.480Z,93455.72
2023-05-20T17:26:48.873Z,93457.66
2023-05-20T17:29:22.446Z,93457.88
2023-05-20T17:31:49.801Z,93456.31
2023-05-20T17:34:17.250Z,93458.53
2023-05-20T17:36:43.632Z,93456.97
2023-05-20T17:39:19.204Z,93458.59
2023-05-20T17:41:53.714Z,93453.53
2023-05-20T17:44:21.074Z,93457.63
2023-05-20T17:46:48.666Z,93452.91
2023-05-20T17:49:15.347Z,93461.94
2023-05-20T17:51:42.297Z,93457.06
2023-05-20T17:54:08.684Z,93452.88
2023-05-20T17:56:38.351Z,93453.69
2023-05-20T17:59:04.758Z,93464.44
2023-05-20T18:01:32.291Z,93471.38
2023-05-20T18:04:03.660Z,93466.38
2023-05-20T18:06:34.602Z,93471.66
2023-05-20T18:09:05.946Z,93476.19
2023-05-20T18:11:33.039Z,93474.34
2023-05-20T18:13:59.862Z,93469.28
2023-05-20T18:16:27.030Z,93462.16
2023-05-20T18:18:53.793Z,93471.47
2023-05-20T18:21:20.811Z,93483.41
2023-05-20T18:23:47.455Z,93474.97
2023-05-20T18:26:13.992Z,93474.41
2023-05-20T18:28:40.731Z,93485.03
2023-05-20T18:31:07.294Z,93481.31
2023-05-20T18:33:34.005Z,93480.50
2023-05-20T18:36:00.554Z,93486.56
2023-05-20T18:38:27.212Z,93468.03
2023-05-20T18:40:53.652Z,93477.53
2023-05-20T18:43:20.051Z,93478.63
2023-05-20T18:45:52.492Z,93480.13
2023-05-20T18:48:32.417Z,93488.34
2023-05-20T18:50:58.790Z,93483.56
2023-05-20T18:53:25.379Z,93478.25
2023-05-20T18:55:51.765Z,93492.72
2023-05-20T18:58:18.268Z,93498.97
2023-05-20T19:00:52.559Z,93479.84
2023-05-20T19:03:19.012Z,93488.25
2023-05-20T19:05:59.539Z,93491.44
2023-05-20T19:08:27.501Z,93502.03
2023-05-20T19:10:53.909Z,93493.78
2023-05-20T19:13:20.548Z,93503.03
2023-05-20T19:15:47.024Z,93509.56
2023-05-20T19:18:14.653Z,93515.72
2023-05-20T19:20:43.115Z,93524.69
2023-05-20T19:23:09.449Z,93527.81
2023-05-20T19:25:36.044Z,93529.41
2023-05-20T19:28:02.668Z,93528.91
2023-05-20T19:30:29.012Z,93531.50
2023-05-20T19:33:03.629Z,93532.75
2023-05-20T19:35:30.125Z,93532.97
2023-05-20T19:38:04.971Z,93533.47
2023-05-20T19:40:36.626Z,93530.09
2023-05-20T19:43:12.185Z,93531.56
2023-05-20T19:45:41.761Z,93526.44
2023-05-20T19:48:10.740Z,93533.69
2023-05-20T19:50:37.501Z,93536.84
2023-05-20T19:53:15.135Z,93534.91
2023-05-20T19:55:42.589Z,93543.75
2023-05-20T19:58:17.845Z,93539.75
2023-05-20T20:00:48.388Z,93541.34
2023-05-20T20:03:29.107Z,93543.03
2023-05-20T20:05:58.647Z,93543.44
2023-05-20T20:08:25.015Z,93534.25
2023-05-20T20:10:51.367Z,93542.81
2023-05-20T20:13:26.913Z,93543.47
2023-05-20T20:16:11.753Z,93543.41
2023-05-20T20:18:47.624Z,93538.72
2023-05-20T20:21:30.366Z,93540.50
2023-05-20T20:24:03.880Z,93545.78
2023-05-20T20:26:34.621Z,93537.78
2023-05-20T20:29:04.084Z,93539.47
2023-05-20T20:31:36.355Z,93540.06
2023-05-20T20:34:02.857Z,93544.84
2023-05-20T20:36:39.586Z,93544.56
2023-05-20T20:39:26.226Z,93545.50
2023-05-20T20:41:54.550Z,93551.56
2023-05-20T20:44:21.065Z,93550.38
2023-05-20T20:46:50.842Z,93546.63
2023-05-20T20:49:18.773Z,93550.78
2023-05-20T20:51:45.889Z,93555.44
2023-05-20T20:54:14.236Z,93552.72
2023-05-20T20:56:41.459Z,93556.53
2023-05-20T20:59:10.241Z,93551.34
2023-05-20T21:01:37.749Z,93549.25
2023-05-20T21:04:08.901Z,93540.69
2023-05-20T21:06:37.700Z,93539.66
2023-05-20T21:09:04.180Z,93543.09
2023-05-20T21:11:30.540Z,93536.50
2023-05-20T21:13:56.907Z,93543.66
2023-05-20T21:16:28.313Z,93536.22
2023-05-20T21:18:54.711Z,93534.06
2023-05-20T21:21:21.608Z,93539.69
2023-05-20T21:23:52.864Z,93525.88
2023-05-20T21:26:21.213Z,93532.66
2023-05-20T21:28:47.790Z,93533.13
2023-05-20T21:31:14.252Z,93538.47
2023-05-20T21:33:40.672Z,93531.50
2023-05-20T21:36:07.067Z,93522.41
2023-05-20T21:38:33.455Z,93531.00
2023-05-20T21:41:01.228Z,93527.81
2023-05-20T21:43:27.699Z,93525.22
2023-05-20T21:45:54.141Z,93521.47
2023-05-20T21:48:27.608Z,93517.47
2023-05-20T21:50:53.978Z,93523.41
2023-05-20T21:53:20.379Z,93523.06
2023-05-20T21:55:57.090Z,93526.16
2023-05-20T21:58:23.445Z,93526.13
2023-05-20T22:00:49.802Z,93528.78
2023-05-20T22:03:16.344Z,93527.28
2023-05-20T22:05:46.363Z,93531.59
2023-05-20T22:08:13.923Z,93523.38
2023-05-20T22:10:40.274Z,93529.88
2023-05-20T22:13:06.785Z,93525.31
2023-05-20T22:15:33.347Z,93515.94
2023-05-20T22:17:59.897Z,93518.56
2023-05-20T22:20:28.626Z,93522.53
2023-05-20T22:22:54.972Z,93513.97
2023-05-20T22:25:21.462Z,93519.53
2023-05-20T22:27:48.192Z,93511.53
2023-05-20T22:30:14.630Z,93509.34
2023-05-20T22:32:44.207Z,93511.09
2023-05-20T22:35:12.985Z,93512.44
2023-05-20T22:37:39.350Z,93513.75
